createdAt,value
2022-10-07T00:00:54.509Z,67.7857
2022-10-07T00:01:54.505Z,67.7143
2022-10-07T00:02:54.531Z,67.7143
2022-10-07T00:03:54.543Z,67.8571
2022-10-07T00:04:54.573Z,68.0714
2022-10-07T00:05:54.609Z,68.1429
2022-10-07T00:06:54.643Z,68.2143
2022-10-07T00:07:54.692Z,68.1429
2022-10-07T00:08:54.710Z,68.0714
2022-10-07T00:09:54.752Z,68
2022-10-07T00:10:54.811Z,67.8571
2022-10-07T00:11:54.821Z,67.5714
2022-10-07T00:12:54.862Z,67.5714
2022-10-07T00:13:54.916Z,67.5714
2022-10-07T00:14:54.929Z,67.7143
2022-10-07T00:15:54.962Z,67.8571
2022-10-07T00:16:55.076Z,68
2022-10-07T00:17:55.059Z,68.1429
2022-10-07T00:18:55.070Z,68.2143
2022-10-07T00:19:55.100Z,68.1429
2022-10-07T00:20:55.165Z,68.0714
2022-10-07T00:21:55.180Z,68
2022-10-07T00:22:55.222Z,67.9286
2022-10-07T00:23:55.269Z,67.8571
2022-10-07T00:24:55.281Z,67.5
2022-10-07T00:25:55.319Z,67.3571
2022-10-07T00:26:55.355Z,67.3571
2022-10-07T00:27:55.390Z,67.5714
2022-10-07T00:28:55.449Z,67.6429
2022-10-07T00:29:55.461Z,67.5
2022-10-07T00:30:55.535Z,67.6429
2022-10-07T00:31:57.329Z,67.7143
2022-10-07T00:32:55.557Z,67.8571
2022-10-07T00:33:55.611Z,67.8571
2022-10-07T00:34:55.621Z,67.7857
2022-10-07T00:35:55.641Z,67.5714
2022-10-07T00:36:55.679Z,67.7857
2022-10-07T00:37:55.712Z,68
2022-10-07T00:38:55.770Z,68.2857
2022-10-07T00:39:55.777Z,68.4286
2022-10-07T00:40:55.822Z,68.4286
2022-10-07T00:41:55.877Z,68.3571
2022-10-07T00:42:55.886Z,68.5
2022-10-07T00:43:55.920Z,68.5
2022-10-07T00:44:55.958Z,68.3571
2022-10-07T00:45:56.063Z,68.3571
2022-10-07T00:46:56.051Z,68.2857
2022-10-07T00:47:56.063Z,68.2857
2022-10-07T00:48:56.098Z,68.3571
2022-10-07T00:49:56.129Z,68.3571
2022-10-07T00:50:56.172Z,68.2857
2022-10-07T00:51:56.213Z,68.1429
2022-10-07T00:52:56.247Z,68.1429
2022-10-07T00:53:56.279Z,67.9286
2022-10-07T00:54:56.328Z,67.6429
2022-10-07T00:55:56.338Z,67.5714
2022-10-07T00:56:56.370Z,67.6429
2022-10-07T00:57:56.429Z,67.7857
2022-10-07T00:58:56.452Z,67.7857
2022-10-07T00:59:56.485Z,67.7857
2022-10-07T01:00:56.574Z,67.7143
2022-10-07T01:01:56.667Z,67.6429
2022-10-07T01:02:56.613Z,67.7143
2022-10-07T01:03:56.649Z,67.7143
2022-10-07T01:04:56.670Z,67.7143
2022-10-07T01:05:56.714Z,67.7143
2022-10-07T01:06:56.749Z,67.7143
2022-10-07T01:07:59.196Z,67.7143
2022-10-07T01:08:56.828Z,67.5
2022-10-07T01:09:56.858Z,67.3571
2022-10-07T01:10:56.887Z,67.3571
2022-10-07T01:11:56.926Z,67.4286
2022-10-07T01:12:56.996Z,67.5
2022-10-07T01:13:57.013Z,67.6429
2022-10-07T01:14:57.045Z,67.6429
2022-10-07T01:15:57.072Z,67.7143
2022-10-07T01:16:57.181Z,67.7143
2022-10-07T01:17:57.167Z,67.7857
2022-10-07T01:18:57.166Z,67.7857
2022-10-07T01:19:57.191Z,67.7143
2022-10-07T01:20:57.224Z,67.7857
2022-10-07T01:21:57.270Z,67.8571
2022-10-07T01:22:57.330Z,67.7857
2022-10-07T01:23:57.339Z,67.8571
2022-10-07T01:24:57.365Z,68
2022-10-07T01:25:57.415Z,67.9286
2022-10-07T01:26:57.431Z,67.8571
2022-10-07T01:27:57.555Z,67.8571
2022-10-07T01:28:57.505Z,67.6429
2022-10-07T01:29:57.538Z,67.6429
2022-10-07T01:30:57.603Z,67.7143
2022-10-07T01:31:57.628Z,67.7857
2022-10-07T01:32:57.637Z,67.8571
2022-10-07T01:33:57.666Z,67.7143
2022-10-07T01:34:57.691Z,67.7143
2022-10-07T01:35:57.736Z,67.7143
2022-10-07T01:36:57.789Z,67.7143
2022-10-07T01:37:57.800Z,67.6429
2022-10-07T01:38:57.837Z,67.6429
2022-10-07T01:39:57.881Z,67.9286
2022-10-07T01:40:57.937Z,68
2022-10-07T01:41:57.952Z,68.0714
2022-10-07T01:42:57.989Z,68.0714
2022-10-07T01:43:58.027Z,68.1429
2022-10-07T01:44:58.059Z,68.2857
2022-10-07T01:45:58.156Z,68.3571
2022-10-07T01:46:58.127Z,68.3571
2022-10-07T01:47:58.163Z,68.2143
2022-10-07T01:48:58.208Z,68.2143
2022-10-07T01:49:58.268Z,68
2022-10-07T01:50:58.283Z,67.9286
2022-10-07T01:51:58.319Z,67.8571
2022-10-07T01:52:58.376Z,67.9286
2022-10-07T01:53:58.382Z,68.0714
2022-10-07T01:54:58.433Z,68.1429
2022-10-07T01:55:58.448Z,68.1429
2022-10-07T01:56:58.484Z,68
2022-10-07T01:57:58.542Z,68
2022-10-07T01:58:58.555Z,67.8571
2022-10-07T01:59:58.596Z,67.7857
2022-10-07T02:00:58.626Z,67.6429
2022-10-07T02:01:58.736Z,67.6429
2022-10-07T02:02:58.717Z,67.6429
2022-10-07T02:03:58.831Z,67.7143
2022-10-07T02:04:58.761Z,67.7857
2022-10-07T02:05:58.792Z,67.7857
2022-10-07T02:06:58.818Z,67.7143
2022-10-07T02:07:58.848Z,67.7857
2022-10-07T02:08:58.908Z,67.7857
2022-10-07T02:09:58.919Z,67.8571
2022-10-07T02:10:58.964Z,67.7857
2022-10-07T02:11:59.013Z,67.7143
2022-10-07T02:12:59.031Z,67.6429
2022-10-07T02:13:59.063Z,67.5
2022-10-07T02:14:59.114Z,67.4286
2022-10-07T02:15:59.221Z,67.5
2022-10-07T02:16:59.175Z,67.5714
2022-10-07T02:17:59.178Z,67.8571
2022-10-07T02:18:59.207Z,68.1429
2022-10-07T02:19:59.241Z,68.2857
2022-10-07T02:20:59.279Z,68.5
2022-10-07T02:21:59.336Z,68.6429
2022-10-07T02:22:59.354Z,68.7143
2022-10-07T02:23:59.385Z,68.7857
2022-10-07T02:24:59.445Z,68.7857
2022-10-07T02:25:59.452Z,68.7143
2022-10-07T02:26:59.479Z,68.5714
2022-10-07T02:27:59.558Z,68.3571
2022-10-07T02:28:59.556Z,68.1429
2022-10-07T02:29:59.631Z,68.1429
2022-10-07T02:30:59.718Z,68.2143
2022-10-07T02:31:59.667Z,68.2143
2022-10-07T02:32:59.701Z,68.3571
2022-10-07T02:33:59.738Z,68.3571
2022-10-07T02:34:59.806Z,68.3571
2022-10-07T02:35:59.813Z,68.4286
2022-10-07T02:36:59.849Z,68.4286
2022-10-07T02:37:59.886Z,68.5
2022-10-07T02:38:59.922Z,68.4286
2022-10-07T02:39:59.973Z,68.5714
2022-10-07T02:40:59.995Z,68.5
2022-10-07T02:42:00.029Z,68.5
2022-10-07T02:43:00.057Z,68.5
2022-10-07T02:44:00.096Z,68.2857
2022-10-07T02:45:00.152Z,68.2143
2022-10-07T02:46:00.243Z,68.0714
2022-10-07T02:47:00.207Z,67.9286
2022-10-07T02:48:00.239Z,68
2022-10-07T02:49:00.276Z,68
2022-10-07T02:50:00.334Z,68
2022-10-07T02:51:00.339Z,68.1429
2022-10-07T02:52:00.378Z,68.3571
2022-10-07T02:53:00.405Z,68.5
2022-10-07T02:54:00.439Z,68.5714
2022-10-07T02:55:00.474Z,68.4286
2022-10-07T02:56:00.512Z,68.2857
2022-10-07T02:57:00.553Z,68
2022-10-07T02:58:00.592Z,67.9286
2022-10-07T02:59:00.629Z,67.7857
2022-10-07T03:00:00.662Z,67.8571
2022-10-07T03:01:00.696Z,68
2022-10-07T03:02:00.799Z,68.1429
2022-10-07T03:03:00.763Z,68.2143
2022-10-07T03:04:00.869Z,68.2857
2022-10-07T03:05:00.828Z,68.3571
2022-10-07T03:06:00.854Z,68.3571
2022-10-07T03:07:00.893Z,68.2857
2022-10-07T03:08:00.925Z,68.2143
2022-10-07T03:09:00.965Z,68.2143
2022-10-07T03:10:00.994Z,68.0714
2022-10-07T03:11:01.032Z,68.0714
2022-10-07T03:12:01.079Z,68.0714
2022-10-07T03:13:01.109Z,68.1429
2022-10-07T03:14:01.131Z,68.1429
2022-10-07T03:15:01.181Z,68.1429
2022-10-07T03:16:01.234Z,68.1429
2022-10-07T03:17:01.225Z,68.1429
2022-10-07T03:18:01.285Z,68.1429
2022-10-07T03:19:01.315Z,68.2143
2022-10-07T03:20:01.322Z,68.2857
2022-10-07T03:21:01.385Z,68.2143
2022-10-07T03:22:01.393Z,68.2143
2022-10-07T03:23:01.437Z,68.2857
2022-10-07T03:24:01.494Z,68.2857
2022-10-07T03:25:01.504Z,68.2143
2022-10-07T03:26:01.568Z,68.2143
2022-10-07T03:27:01.585Z,68.0714
2022-10-07T03:28:01.681Z,67.9286
2022-10-07T03:29:01.644Z,67.8571
2022-10-07T03:30:01.698Z,67.8571
2022-10-07T03:31:01.734Z,67.7857
2022-10-07T03:32:01.750Z,67.7857
2022-10-07T03:33:01.763Z,67.8571
2022-10-07T03:34:01.802Z,67.9286
2022-10-07T03:35:01.848Z,67.9286
2022-10-07T03:36:01.848Z,67.9286
2022-10-07T03:37:01.898Z,68
2022-10-07T03:38:01.916Z,68
2022-10-07T03:39:01.955Z,67.9286
2022-10-07T03:40:02.001Z,67.7143
2022-10-07T03:41:02.027Z,67.8571
2022-10-07T03:42:02.079Z,67.9286
2022-10-07T03:43:02.089Z,68.0714
2022-10-07T03:44:02.111Z,68
2022-10-07T03:45:02.141Z,67.7857
2022-10-07T03:46:02.391Z,67.7143
2022-10-07T03:47:02.211Z,67.7143
2022-10-07T03:48:02.246Z,67.7143
2022-10-07T03:49:02.291Z,67.8571
2022-10-07T03:50:02.365Z,67.9286
2022-10-07T03:51:02.365Z,67.9286
2022-10-07T03:52:02.402Z,67.7857
2022-10-07T03:53:02.424Z,67.7857
2022-10-07T03:54:02.458Z,67.7143
2022-10-07T03:55:02.521Z,67.7857
2022-10-07T03:56:02.557Z,67.8571
2022-10-07T03:57:02.559Z,68
2022-10-07T03:58:02.593Z,67.9286
2022-10-07T03:59:02.629Z,68
2022-10-07T04:00:02.658Z,68
2022-10-07T04:01:02.724Z,68.1429
2022-10-07T04:02:02.808Z,68.1429
2022-10-07T04:03:02.821Z,68.1429
2022-10-07T04:04:02.803Z,68.1429
2022-10-07T04:05:02.843Z,68.2143
2022-10-07T04:06:02.897Z,68.2857
2022-10-07T04:07:02.906Z,68.2143
2022-10-07T04:08:02.938Z,68.0714
2022-10-07T04:09:02.969Z,68
2022-10-07T04:10:03.008Z,68.0714
2022-10-07T04:11:03.072Z,68.1429
2022-10-07T04:12:03.084Z,68.2857
2022-10-07T04:13:03.130Z,68.2857
2022-10-07T04:14:03.163Z,68.2857
2022-10-07T04:15:03.200Z,68.2143
2022-10-07T04:16:03.322Z,68.1429
2022-10-07T04:17:03.282Z,68.2143
2022-10-07T04:18:03.317Z,68.2857
2022-10-07T04:19:03.349Z,68.2857
2022-10-07T04:20:03.403Z,68.2143
2022-10-07T04:21:03.412Z,68.1429
2022-10-07T04:22:08.434Z,68.1429
2022-10-07T04:23:03.480Z,68.0714
2022-10-07T04:24:03.510Z,68.1429
2022-10-07T04:25:03.583Z,68.2143
2022-10-07T04:26:03.596Z,68.2857
2022-10-07T04:27:03.637Z,68.4286
2022-10-07T04:28:03.990Z,68.3571
2022-10-07T04:29:03.698Z,68.2857
2022-10-07T04:30:03.757Z,68.2857
2022-10-07T04:31:03.838Z,68.3571
2022-10-07T04:32:03.804Z,68.3571
2022-10-07T04:33:03.833Z,68.4286
2022-10-07T04:34:03.892Z,68.3571
2022-10-07T04:35:03.910Z,68.2143
2022-10-07T04:36:03.951Z,68.2143
2022-10-07T04:37:04.013Z,68.2143
2022-10-07T04:38:04.025Z,68.3571
2022-10-07T04:39:04.056Z,68.4286
2022-10-07T04:40:04.092Z,68.3571
2022-10-07T04:41:04.126Z,68.2857
2022-10-07T04:42:04.182Z,68.2143
2022-10-07T04:43:04.194Z,68
2022-10-07T04:44:04.233Z,68
2022-10-07T04:45:04.278Z,68.1429
2022-10-07T04:46:04.303Z,68.1429
2022-10-07T04:47:04.470Z,68.1429
2022-10-07T04:48:04.388Z,68.0714
2022-10-07T04:49:04.400Z,68
2022-10-07T04:50:04.435Z,68.0714
2022-10-07T04:51:04.472Z,68.0714
2022-10-07T04:52:04.524Z,68
2022-10-07T04:53:04.535Z,68
2022-10-07T04:54:04.569Z,67.9286
2022-10-07T04:55:04.605Z,67.9286
2022-10-07T04:56:04.645Z,67.8571
2022-10-07T04:57:04.678Z,67.7143
2022-10-07T04:58:04.711Z,67.5
2022-10-07T04:59:04.748Z,67.5
2022-10-07T05:00:04.783Z,67.5714
2022-10-07T05:01:04.856Z,67.6429
2022-10-07T05:02:04.892Z,67.7143
2022-10-07T05:03:04.875Z,67.8571
2022-10-07T05:04:04.910Z,67.9286
2022-10-07T05:05:04.941Z,67.9286
2022-10-07T05:06:05.726Z,68
2022-10-07T05:07:05.021Z,68
2022-10-07T05:08:05.057Z,67.8571
2022-10-07T05:09:05.069Z,67.8571
2022-10-07T05:10:05.105Z,67.7143
2022-10-07T05:11:05.133Z,67.7143
2022-10-07T05:12:05.174Z,67.7143
2022-10-07T05:13:05.224Z,67.7143
2022-10-07T05:14:05.239Z,67.6429
2022-10-07T05:15:05.267Z,67.6429
2022-10-07T05:16:05.388Z,67.7143
2022-10-07T05:17:05.343Z,67.6429
2022-10-07T05:18:05.379Z,67.7143
2022-10-07T05:19:05.415Z,67.7143
2022-10-07T05:20:05.445Z,67.7857
2022-10-07T05:21:05.485Z,67.7143
2022-10-07T05:22:05.518Z,67.7857
2022-10-07T05:23:05.551Z,67.7857
2022-10-07T05:24:05.587Z,67.8571
2022-10-07T05:25:05.626Z,67.7143
2022-10-07T05:26:05.656Z,67.7143
2022-10-07T05:27:05.695Z,67.7143
2022-10-07T05:28:05.771Z,67.7143
2022-10-07T05:29:05.755Z,67.7143
2022-10-07T05:30:05.790Z,67.7857
2022-10-07T05:31:05.894Z,67.8571
2022-10-07T05:32:05.922Z,67.8571
2022-10-07T05:33:05.876Z,67.9286
2022-10-07T05:34:05.908Z,67.9286
2022-10-07T05:35:05.943Z,68
2022-10-07T05:36:05.972Z,68.2143
2022-10-07T05:37:05.999Z,68.2857
2022-10-07T05:38:06.034Z,68.3571
2022-10-07T05:39:06.064Z,68.2857
2022-10-07T05:40:06.098Z,68.4286
2022-10-07T05:41:06.147Z,68.5
2022-10-07T05:42:06.159Z,68.3571
2022-10-07T05:43:06.205Z,68.3571
2022-10-07T05:44:06.220Z,68.4286
2022-10-07T05:45:06.258Z,68.3571
2022-10-07T05:46:06.378Z,68.3571
2022-10-07T05:47:06.326Z,68.3571
2022-10-07T05:48:06.366Z,68.2857
2022-10-07T05:49:06.431Z,68.2857
2022-10-07T05:50:06.443Z,68.2143
2022-10-07T05:51:06.501Z,68.2143
2022-10-07T05:52:06.512Z,68.2143
2022-10-07T05:53:06.571Z,68.3571
2022-10-07T05:54:06.589Z,68.4286
2022-10-07T05:55:06.621Z,68.4286
2022-10-07T05:56:06.655Z,68.5
2022-10-07T05:57:06.679Z,68.5
2022-10-07T05:58:06.708Z,68.5
2022-10-07T05:59:06.748Z,68.5714
2022-10-07T06:00:06.794Z,68.5714
2022-10-07T06:01:09.971Z,68.5714
2022-10-07T06:02:06.954Z,68.6429
2022-10-07T06:03:07.052Z,68.8571
2022-10-07T06:04:06.916Z,68.8571
2022-10-07T06:05:06.978Z,68.7857
2022-10-07T06:06:06.993Z,68.8571
2022-10-07T06:07:07.028Z,68.9286
2022-10-07T06:08:07.059Z,69.0714
2022-10-07T06:09:07.091Z,69.1429
2022-10-07T06:10:07.147Z,69.1429
2022-10-07T06:11:07.169Z,69.1429
2022-10-07T06:12:07.190Z,69.2857
2022-10-07T06:13:07.230Z,69.3571
2022-10-07T06:14:07.289Z,69.4286
2022-10-07T06:15:07.309Z,69.5
2022-10-07T06:16:07.410Z,69.7857
2022-10-07T06:17:07.374Z,69.9286
2022-10-07T06:18:07.412Z,69.9286
2022-10-07T06:19:07.462Z,69.8571
2022-10-07T06:20:07.478Z,69.8571
2022-10-07T06:21:07.511Z,69.9286
2022-10-07T06:22:07.536Z,70
2022-10-07T06:23:07.574Z,69.9286
2022-10-07T06:24:07.633Z,69.9286
2022-10-07T06:25:07.644Z,70
2022-10-07T06:26:07.703Z,70.1429
2022-10-07T06:27:07.732Z,70.2143
2022-10-07T06:28:07.793Z,70.2857
2022-10-07T06:29:07.788Z,70.3571
2022-10-07T06:30:07.848Z,70.5
2022-10-07T06:31:07.962Z,70.5714
2022-10-07T06:32:07.895Z,70.5714
2022-10-07T06:33:07.921Z,70.5714
2022-10-07T06:34:07.959Z,70.5714
2022-10-07T06:35:08.014Z,70.5
2022-10-07T06:36:08.053Z,70.4286
2022-10-07T06:37:08.067Z,70.5714
2022-10-07T06:38:08.097Z,70.5714
2022-10-07T06:39:08.135Z,70.6429
2022-10-07T06:40:08.167Z,70.5
2022-10-07T06:41:08.219Z,70.3571
2022-10-07T06:42:08.250Z,70.2857
2022-10-07T06:43:08.257Z,70.2857
2022-10-07T06:44:08.289Z,70.1429
2022-10-07T06:45:08.353Z,69.7857
2022-10-07T06:46:08.427Z,69.4286
2022-10-07T06:47:11.712Z,68.8571
2022-10-07T06:48:08.433Z,68.4286
2022-10-07T06:49:08.468Z,68.0714
2022-10-07T06:50:08.519Z,67.6429
2022-10-07T06:51:08.533Z,67.1429
2022-10-07T06:52:08.580Z,67.0714
2022-10-07T06:53:08.596Z,66.9286
2022-10-07T06:54:08.632Z,67.0714
2022-10-07T06:55:08.666Z,67.0714
2022-10-07T06:56:08.703Z,67
2022-10-07T06:57:26.684Z,67
2022-10-07T06:58:11.647Z,66.9286
2022-10-07T06:59:08.809Z,67
2022-10-07T07:00:08.840Z,67
2022-10-07T07:01:08.953Z,67.1429
2022-10-07T07:02:08.969Z,67.2857
2022-10-07T07:03:08.942Z,67.2857
2022-10-07T07:04:08.976Z,67.5
2022-10-07T07:05:09.069Z,67.5714
2022-10-07T07:06:09.151Z,67.5714
2022-10-07T07:07:09.071Z,67.7143
2022-10-07T07:08:09.133Z,67.7857
2022-10-07T07:09:09.141Z,67.8571
2022-10-07T07:10:09.173Z,67.9286
2022-10-07T07:11:09.229Z,68.0714
2022-10-07T07:12:09.234Z,68.2143
2022-10-07T07:13:09.270Z,68.3571
2022-10-07T07:14:09.307Z,68.5714
2022-10-07T07:15:09.337Z,68.7143
2022-10-07T07:16:09.400Z,68.7857
2022-10-07T07:17:09.524Z,68.7857
2022-10-07T07:18:09.455Z,68.9286
2022-10-07T07:19:09.488Z,69.1429
2022-10-07T07:20:09.517Z,69.2143
2022-10-07T07:21:09.573Z,69.3571
2022-10-07T07:22:09.608Z,69.5
2022-10-07T07:23:09.612Z,69.7143
2022-10-07T07:24:09.630Z,69.8571
2022-10-07T07:25:09.666Z,69.9286
2022-10-07T07:26:09.701Z,69.9286
2022-10-07T07:27:09.755Z,70.0714
2022-10-07T07:28:09.883Z,70.2857
2022-10-07T07:29:09.822Z,70.3571
2022-10-07T07:30:09.836Z,70.3571
2022-10-07T07:31:09.940Z,70.4286
2022-10-07T07:32:09.895Z,70.4286
2022-10-07T07:33:09.933Z,70.3571
2022-10-07T07:34:09.984Z,70.2143
2022-10-07T07:35:10.006Z,70.1429
2022-10-07T07:36:10.028Z,70.2143
2022-10-07T07:37:10.066Z,70.2143
2022-10-07T07:38:10.102Z,70.2143
2022-10-07T07:39:10.134Z,70.1429
2022-10-07T07:40:10.174Z,70.0714
2022-10-07T07:41:10.207Z,70.0714
2022-10-07T07:42:10.241Z,70.1429
2022-10-07T07:43:10.278Z,70.2857
2022-10-07T07:44:10.313Z,70.2857
2022-10-07T07:45:10.349Z,70.3571
2022-10-07T07:46:10.451Z,70.2857
2022-10-07T07:47:10.412Z,70.2857
2022-10-07T07:48:10.445Z,70.2143
2022-10-07T07:49:10.493Z,70.0714
2022-10-07T07:50:10.541Z,70.2143
2022-10-07T07:51:10.550Z,70.2857
2022-10-07T07:52:10.582Z,70.3571
2022-10-07T07:53:10.618Z,70.3571
2022-10-07T07:54:10.675Z,70.2857
2022-10-07T07:55:10.679Z,70.2143
2022-10-07T07:56:10.715Z,70.1429
2022-10-07T07:57:10.741Z,70.1429
2022-10-07T07:58:12.012Z,70.1429
2022-10-07T07:59:10.833Z,70.1429
2022-10-07T08:00:10.846Z,70
2022-10-07T08:01:10.914Z,70
2022-10-07T08:02:10.953Z,70.1429
2022-10-07T08:03:10.931Z,70.1429
2022-10-07T08:04:10.968Z,69.8571
2022-10-07T08:05:10.996Z,69.9286
2022-10-07T08:06:11.025Z,69.9286
2022-10-07T08:07:11.091Z,70
2022-10-07T08:08:11.089Z,70.1429
2022-10-07T08:09:11.115Z,70.3571
2022-10-07T08:10:11.150Z,70.2143
2022-10-07T08:11:11.191Z,70.1429
2022-10-07T08:12:11.244Z,69.9286
2022-10-07T08:13:11.255Z,69.8571
2022-10-07T08:14:11.286Z,69.5
2022-10-07T08:15:11.328Z,69.4286
2022-10-07T08:16:11.426Z,69.4286
2022-10-07T08:17:11.399Z,69.5714
2022-10-07T08:18:11.440Z,69.5
2022-10-07T08:19:11.466Z,69.5714
2022-10-07T08:20:11.503Z,69.6429
2022-10-07T08:21:11.534Z,69.5714
2022-10-07T08:22:11.569Z,69.5
2022-10-07T08:23:11.606Z,69.2857
2022-10-07T08:24:11.633Z,69.1429
2022-10-07T08:25:11.674Z,68.7857
2022-10-07T08:26:11.708Z,68.5714
2022-10-07T08:27:11.729Z,68.6429
2022-10-07T08:28:11.805Z,68.7857
2022-10-07T08:29:11.806Z,68.8571
2022-10-07T08:30:11.880Z,68.2857
2022-10-07T08:31:11.924Z,68
2022-10-07T08:32:11.895Z,68.0714
2022-10-07T08:33:11.959Z,68.3571
2022-10-07T08:34:11.972Z,68.2857
2022-10-07T08:35:12.002Z,68.2143
2022-10-07T08:36:12.034Z,68.4286
2022-10-07T08:37:12.071Z,68.2143
2022-10-07T08:38:14.510Z,68.2857
2022-10-07T08:39:12.148Z,68.2143
2022-10-07T08:40:12.183Z,68
2022-10-07T08:41:12.217Z,67.7143
2022-10-07T08:42:12.252Z,67.5714
2022-10-07T08:43:12.278Z,67.4286
2022-10-07T08:44:16.520Z,67.1429
2022-10-07T08:45:12.340Z,67.2143
2022-10-07T08:46:12.432Z,67.2857
2022-10-07T08:47:12.403Z,67.5
2022-10-07T08:48:12.439Z,67.5714
2022-10-07T08:49:12.475Z,67.0714
2022-10-07T08:50:18.103Z,66.8571
2022-10-07T08:51:12.545Z,66.4286
2022-10-07T08:52:12.577Z,66.4286
2022-10-07T08:53:12.634Z,66.5
2022-10-07T08:54:12.646Z,66.2143
2022-10-07T08:55:12.679Z,66.2857
2022-10-07T08:56:12.713Z,66.2857
2022-10-07T08:57:12.751Z,65.6429
2022-10-07T08:58:12.804Z,65.5
2022-10-07T08:59:12.814Z,65.4286
2022-10-07T09:00:12.867Z,65.1429
2022-10-07T09:01:12.913Z,64.8571
2022-10-07T09:02:12.908Z,64.7143
2022-10-07T09:03:12.969Z,64.7143
2022-10-07T09:04:12.971Z,64.5714
2022-10-07T09:05:13.007Z,64.4286
2022-10-07T09:06:13.036Z,64.3571
2022-10-07T09:07:13.066Z,64.5714
2022-10-07T09:08:13.124Z,64.3571
2022-10-07T09:09:13.142Z,63.6429
2022-10-07T09:10:13.178Z,63.6429
2022-10-07T09:11:13.207Z,63.5714
2022-10-07T09:12:13.241Z,63.9286
2022-10-07T09:13:13.267Z,63.7857
2022-10-07T09:14:13.307Z,63.4286
2022-10-07T09:15:13.341Z,62.7143
2022-10-07T09:16:13.489Z,62.7857
2022-10-07T09:17:13.412Z,63.0714
2022-10-07T09:18:13.467Z,63.0714
2022-10-07T09:19:13.499Z,63.3571
2022-10-07T09:20:13.508Z,63.0714
2022-10-07T09:21:13.541Z,63
2022-10-07T09:22:13.574Z,62.5
2022-10-07T09:23:13.605Z,62.4286
2022-10-07T09:24:13.655Z,62.3571
2022-10-07T09:25:13.667Z,62.1429
2022-10-07T09:26:13.704Z,61.7857
2022-10-07T09:27:13.746Z,61.5714
2022-10-07T09:28:13.846Z,61.7857
2022-10-07T09:29:13.810Z,61.8571
2022-10-07T09:30:13.865Z,61.6429
2022-10-07T09:31:14.063Z,61.7143
2022-10-07T09:32:13.910Z,61.5
2022-10-07T09:33:13.930Z,60.8571
2022-10-07T09:34:13.955Z,61.0714
2022-10-07T09:35:13.992Z,60
2022-10-07T09:36:14.019Z,60
2022-10-07T09:37:14.051Z,60.5714
2022-10-07T09:38:14.090Z,60.5
2022-10-07T09:39:14.125Z,60.2143
2022-10-07T09:40:14.155Z,59.9286
2022-10-07T09:41:14.187Z,60
2022-10-07T09:42:14.222Z,59.8571
2022-10-07T09:43:14.363Z,59.7857
2022-10-07T09:44:14.293Z,59.2857
2022-10-07T09:45:14.346Z,58.7857
2022-10-07T09:46:14.396Z,58.5714
2022-10-07T09:47:14.391Z,58
2022-10-07T09:48:14.425Z,58.4286
2022-10-07T09:49:14.457Z,58.9286
2022-10-07T09:50:14.511Z,59.2143
2022-10-07T09:51:14.523Z,59.5
2022-10-07T09:52:14.559Z,58.7143
2022-10-07T09:53:14.597Z,58.5714
2022-10-07T09:54:14.622Z,58.0714
2022-10-07T09:55:14.681Z,58.4286
2022-10-07T09:56:14.698Z,58.5
2022-10-07T09:57:18.241Z,58.3571
2022-10-07T09:58:14.768Z,57.6429
2022-10-07T09:59:14.804Z,57.5
2022-10-07T10:00:14.835Z,57.9286
2022-10-07T10:01:14.860Z,58.7143
2022-10-07T10:02:14.945Z,59.1429
2022-10-07T10:03:15.000Z,58.2143
2022-10-07T10:04:14.956Z,57.5714
2022-10-07T10:05:14.991Z,57.7857
2022-10-07T10:06:15.054Z,57.6429
2022-10-07T10:07:15.060Z,57.2143
2022-10-07T10:08:15.096Z,56.2143
2022-10-07T10:09:18.159Z,55.7143
2022-10-07T10:10:15.156Z,55.2143
2022-10-07T10:11:15.219Z,55.3571
2022-10-07T10:12:15.257Z,55.2143
2022-10-07T10:13:15.269Z,54.5714
2022-10-07T10:14:15.307Z,54.6429
2022-10-07T10:15:15.338Z,54.5
2022-10-07T10:16:15.436Z,54.5
2022-10-07T10:17:15.424Z,54.5714
2022-10-07T10:18:15.440Z,54.7857
2022-10-07T10:19:15.468Z,54.3571
2022-10-07T10:20:15.507Z,53.7857
2022-10-07T10:21:15.535Z,53.5
2022-10-07T10:22:15.569Z,53.7857
2022-10-07T10:23:15.596Z,54.2143
2022-10-07T10:24:15.629Z,54.5714
2022-10-07T10:25:15.668Z,53.3571
2022-10-07T10:26:15.697Z,53.3571
2022-10-07T10:27:15.734Z,53.5714
2022-10-07T10:28:15.855Z,52.6429
2022-10-07T10:29:15.812Z,52.9286
2022-10-07T10:30:15.847Z,52.3571
2022-10-07T10:31:15.943Z,52.3571
2022-10-07T10:32:15.921Z,52.8571
2022-10-07T10:33:15.946Z,52.9286
2022-10-07T10:34:15.979Z,52.2857
2022-10-07T10:35:16.019Z,53.1429
2022-10-07T10:36:16.047Z,52.8571
2022-10-07T10:37:16.083Z,52.5714
2022-10-07T10:38:16.114Z,52.2857
2022-10-07T10:39:16.146Z,52.1429
2022-10-07T10:40:16.184Z,52
2022-10-07T10:41:16.218Z,51.9286
2022-10-07T10:42:16.279Z,51.8571
2022-10-07T10:43:16.312Z,50.9286
2022-10-07T10:44:16.320Z,50.5714
2022-10-07T10:45:16.353Z,51.5714
2022-10-07T10:46:16.445Z,51.4286
2022-10-07T10:47:16.425Z,50.7857
2022-10-07T10:48:16.479Z,50.6429
2022-10-07T10:49:16.497Z,50.7857
2022-10-07T10:50:16.534Z,50.5
2022-10-07T10:51:16.583Z,50.2857
2022-10-07T10:52:16.594Z,50.2857
2022-10-07T10:53:16.629Z,49.9286
2022-10-07T10:54:16.653Z,49.6429
2022-10-07T10:55:16.690Z,50.0714
2022-10-07T10:56:16.743Z,49.7143
2022-10-07T10:57:16.759Z,49.1429
2022-10-07T10:58:16.786Z,49.1429
2022-10-07T10:59:16.835Z,49.4286
2022-10-07T11:00:16.880Z,49.2143
2022-10-07T11:01:16.884Z,49.1429
2022-10-07T11:02:16.990Z,50
2022-10-07T11:03:17.008Z,49.7857
2022-10-07T11:04:16.980Z,49.4286
2022-10-07T11:05:17.049Z,49.4286
2022-10-07T11:06:17.052Z,49.2857
2022-10-07T11:07:17.086Z,48.7143
2022-10-07T11:08:17.134Z,47.9286
2022-10-07T11:09:17.145Z,49.1429
2022-10-07T11:10:17.211Z,49
2022-10-07T11:11:17.205Z,48.2857
2022-10-07T11:12:17.238Z,48.1429
2022-10-07T11:13:17.304Z,48.2143
2022-10-07T11:14:17.337Z,48.1429
2022-10-07T11:15:17.344Z,48.1429
2022-10-07T11:16:17.505Z,47.7857
2022-10-07T11:17:17.409Z,47.8571
2022-10-07T11:18:17.446Z,47.3571
2022-10-07T11:19:17.498Z,47
2022-10-07T11:20:17.669Z,47.6429
2022-10-07T11:21:17.539Z,48.0714
2022-10-07T11:22:17.568Z,48.2857
2022-10-07T11:23:17.597Z,47.5714
2022-10-07T11:24:17.630Z,47.7857
2022-10-07T11:25:17.681Z,47.5
2022-10-07T11:26:17.695Z,47.2143
2022-10-07T11:27:17.720Z,47.4286
2022-10-07T11:28:17.853Z,46.7857
2022-10-07T11:29:17.791Z,46.8571
2022-10-07T11:30:17.852Z,47
2022-10-07T11:31:17.915Z,47
2022-10-07T11:32:17.901Z,46.4286
2022-10-07T11:33:17.929Z,46.1429
2022-10-07T11:34:17.971Z,46.3571
2022-10-07T11:35:18.027Z,46.5714
2022-10-07T11:36:18.036Z,45.8571
2022-10-07T11:37:18.071Z,46.0714
2022-10-07T11:38:18.102Z,46.3571
2022-10-07T11:39:18.133Z,46
2022-10-07T11:40:18.188Z,46.3571
2022-10-07T11:41:18.202Z,46.7857
2022-10-07T11:42:18.238Z,46.8571
2022-10-07T11:43:18.264Z,47.2857
2022-10-07T11:44:18.296Z,47.2857
2022-10-07T11:45:18.353Z,47.7143
2022-10-07T11:46:18.437Z,48.2143
2022-10-07T11:47:18.403Z,47.5
2022-10-07T11:48:18.438Z,47.9286
2022-10-07T11:49:18.491Z,48.1429
2022-10-07T11:50:18.495Z,48.6429
2022-10-07T11:51:18.527Z,48.7143
2022-10-07T11:52:18.561Z,47.7857
2022-10-07T11:53:18.597Z,47.9286
2022-10-07T11:54:18.651Z,48.2857
2022-10-07T11:55:18.660Z,47.2143
2022-10-07T11:56:18.689Z,46.7857
2022-10-07T11:57:18.725Z,47.2143
2022-10-07T11:58:18.762Z,47.4286
2022-10-07T11:59:18.806Z,47.5
2022-10-07T12:00:18.836Z,48.3571
2022-10-07T12:01:18.891Z,47.8571
2022-10-07T12:02:19.021Z,48.4286
2022-10-07T12:03:19.024Z,48.5714
2022-10-07T12:04:18.970Z,49.6429
2022-10-07T12:05:19.050Z,48.0714
2022-10-07T12:06:19.046Z,47.3571
2022-10-07T12:07:19.068Z,47.6429
2022-10-07T12:08:19.123Z,47.9286
2022-10-07T12:09:19.135Z,48.7143
2022-10-07T12:10:19.188Z,48.0714
2022-10-07T12:11:19.202Z,48.3571
2022-10-07T12:12:19.237Z,47.2143
2022-10-07T12:13:19.276Z,48
2022-10-07T12:14:19.304Z,48.2143
2022-10-07T12:15:19.355Z,48.0714
2022-10-07T12:16:19.454Z,47.9286
2022-10-07T12:17:19.408Z,48
2022-10-07T12:18:19.442Z,47.8571
2022-10-07T12:19:23.330Z,47.9286